sensor_id;sensor_type;location;lat;lon;timestamp;P1;durP1;ratioP1;P2;durP2;ratioP2
23676;SDS011;31493;49.058;12.190;2022-12-18T00:02:20;118.75;;;39.33;;
23676;SDS011;31493;49.058;12.190;2022-12-18T00:04:48;256.05;;;37.00;;
23676;SDS011;31493;49.058;12.190;2022-12-18T00:07:15;227.15;;;36.85;;
23676;SDS011;31493;49.058;12.190;2022-12-18T00:09:42;170.35;;;37.08;;
23676;SDS011;31493;49.058;12.190;2022-12-18T00:12:09;179.45;;;43.25;;
23676;SDS011;31493;49.058;12.190;2022-12-18T00:14:37;260.40;;;39.60;;
23676;SDS011;31493;49.058;12.190;2022-12-18T00:17:04;140.88;;;40.45;;
23676;SDS011;31493;49.058;12.190;2022-12-18T00:19:31;144.77;;;39.08;;
23676;SDS011;31493;49.058;12.190;2022-12-18T00:21:58;127.13;;;37.55;;
23676;SDS011;31493;49.058;12.190;2022-12-18T00:24:25;158.52;;;37.75;;
23676;SDS011;31493;49.058;12.190;2022-12-18T00:26:52;138.70;;;33.97;;
23676;SDS011;31493;49.058;12.190;2022-12-18T00:29:19;110.03;;;34.45;;
23676;SDS011;31493;49.058;12.190;2022-12-18T00:31:48;164.63;;;33.50;;
23676;SDS011;31493;49.058;12.190;2022-12-18T00:34:15;178.55;;;35.30;;
23676;SDS011;31493;49.058;12.190;2022-12-18T00:36:42;135.45;;;28.73;;
23676;SDS011;31493;49.058;12.190;2022-12-18T00:39:09;101.30;;;31.23;;
23676;SDS011;31493;49.058;12.190;2022-12-18T00:41:37;90.85;;;30.75;;
23676;SDS011;31493;49.058;12.190;2022-12-18T00:44:22;183.32;;;31.23;;
23676;SDS011;31493;49.058;12.190;2022-12-18T00:46:50;135.05;;;32.25;;
23676;SDS011;31493;49.058;12.190;2022-12-18T00:49:18;141.13;;;28.38;;
23676;SDS011;31493;49.058;12.190;2022-12-18T00:51:46;193.15;;;31.95;;
23676;SDS011;31493;49.058;12.190;2022-12-18T00:54:14;209.90;;;29.40;;
23676;SDS011;31493;49.058;12.190;2022-12-18T00:56:41;155.77;;;31.00;;
23676;SDS011;31493;49.058;12.190;2022-12-18T00:59:08;112.32;;;28.75;;
23676;SDS011;31493;49.058;12.190;2022-12-18T01:01:35;102.82;;;30.88;;
23676;SDS011;31493;49.058;12.190;2022-12-18T01:04:04;98.15;;;31.85;;
23676;SDS011;31493;49.058;12.190;2022-12-18T01:06:31;90.63;;;30.55;;
23676;SDS011;31493;49.058;12.190;2022-12-18T01:08:58;107.88;;;29.88;;
23676;SDS011;31493;49.058;12.190;2022-12-18T01:11:25;91.32;;;29.45;;
23676;SDS011;31493;49.058;12.190;2022-12-18T01:13:52;76.97;;;27.35;;
23676;SDS011;31493;49.058;12.190;2022-12-18T01:16:20;142.48;;;28.40;;
23676;SDS011;31493;49.058;12.190;2022-12-18T01:18:50;84.50;;;28.25;;
23676;SDS011;31493;49.058;12.190;2022-12-18T01:21:20;78.43;;;28.52;;
23676;SDS011;31493;49.058;12.190;2022-12-18T01:23:50;87.60;;;30.48;;
23676;SDS011;31493;49.058;12.190;2022-12-18T01:26:18;76.88;;;30.05;;
23676;SDS011;31493;49.058;12.190;2022-12-18T01:28:45;106.07;;;28.55;;
23676;SDS011;31493;49.058;12.190;2022-12-18T01:31:14;108.28;;;28.52;;
23676;SDS011;31493;49.058;12.190;2022-12-18T01:33:43;108.57;;;25.23;;
23676;SDS011;31493;49.058;12.190;2022-12-18T01:36:14;90.95;;;28.13;;
23676;SDS011;31493;49.058;12.190;2022-12-18T01:38:44;92.93;;;29.50;;
23676;SDS011;31493;49.058;12.190;2022-12-18T01:41:11;77.18;;;28.77;;
23676;SDS011;31493;49.058;12.190;2022-12-18T01:43:40;94.13;;;29.08;;
23676;SDS011;31493;49.058;12.190;2022-12-18T01:46:11;76.55;;;28.20;;
23676;SDS011;31493;49.058;12.190;2022-12-18T01:48:39;85.15;;;29.50;;
23676;SDS011;31493;49.058;12.190;2022-12-18T01:51:08;95.13;;;30.27;;
23676;SDS011;31493;49.058;12.190;2022-12-18T01:53:37;79.22;;;28.63;;
23676;SDS011;31493;49.058;12.190;2022-12-18T01:56:08;91.50;;;31.50;;
23676;SDS011;31493;49.058;12.190;2022-12-18T01:58:39;94.28;;;31.08;;
23676;SDS011;31493;49.058;12.190;2022-12-18T02:01:12;81.40;;;28.30;;
23676;SDS011;31493;49.058;12.190;2022-12-18T02:03:41;82.65;;;29.67;;
23676;SDS011;31493;49.058;12.190;2022-12-18T02:06:09;101.20;;;30.77;;
23676;SDS011;31493;49.058;12.190;2022-12-18T02:08:45;102.40;;;27.40;;
23676;SDS011;31493;49.058;12.190;2022-12-18T02:11:23;84.18;;;27.75;;
23676;SDS011;31493;49.058;12.190;2022-12-18T02:14:00;84.72;;;29.75;;
23676;SDS011;31493;49.058;12.190;2022-12-18T02:16:39;77.65;;;26.92;;
23676;SDS011;31493;49.058;12.190;2022-12-18T02:19:15;79.10;;;29.08;;
23676;SDS011;31493;49.058;12.190;2022-12-18T02:21:57;89.63;;;30.42;;
23676;SDS011;31493;49.058;12.190;2022-12-18T02:24:34;85.53;;;31.52;;
23676;SDS011;31493;49.058;12.190;2022-12-18T02:27:07;81.15;;;29.08;;
23676;SDS011;31493;49.058;12.190;2022-12-18T02:29:37;79.38;;;29.35;;
23676;SDS011;31493;49.058;12.190;2022-12-18T02:32:08;91.53;;;30.20;;
23676;SDS011;31493;49.058;12.190;2022-12-18T02:34:40;82.60;;;30.38;;
23676;SDS011;31493;49.058;12.190;2022-12-18T02:37:10;87.72;;;31.35;;
23676;SDS011;31493;49.058;12.190;2022-12-18T02:39:40;74.55;;;28.30;;
23676;SDS011;31493;49.058;12.190;2022-12-18T02:42:11;72.63;;;28.67;;
23676;SDS011;31493;49.058;12.190;2022-12-18T02:44:41;77.93;;;30.13;;
23676;SDS011;31493;49.058;12.190;2022-12-18T02:47:10;71.45;;;27.75;;
23676;SDS011;31493;49.058;12.190;2022-12-18T02:49:40;74.53;;;28.60;;
23676;SDS011;31493;49.058;12.190;2022-12-18T02:52:17;76.38;;;29.23;;
23676;SDS011;31493;49.058;12.190;2022-12-18T02:54:54;85.72;;;30.88;;
23676;SDS011;31493;49.058;12.190;2022-12-18T02:57:29;87.10;;;30.45;;
23676;SDS011;31493;49.058;12.190;2022-12-18T03:00:02;69.70;;;27.63;;
23676;SDS011;31493;49.058;12.190;2022-12-18T03:02:35;85.53;;;30.73;;
23676;SDS011;31493;49.058;12.190;2022-12-18T03:05:07;75.55;;;30.08;;
23676;SDS011;31493;49.058;12.190;2022-12-18T03:07:39;79.03;;;29.48;;
23676;SDS011;31493;49.058;12.190;2022-12-18T03:10:11;81.97;;;29.92;;
23676;SDS011;31493;49.058;12.190;2022-12-18T03:12:43;77.78;;;30.20;;
23676;SDS011;31493;49.058;12.190;2022-12-18T03:15:14;72.80;;;28.98;;
23676;SDS011;31493;49.058;12.190;2022-12-18T03:17:46;67.72;;;27.13;;
23676;SDS011;31493;49.058;12.190;2022-12-18T03:20:20;72.32;;;28.88;;
23676;SDS011;31493;49.058;12.190;2022-12-18T03:22:49;76.82;;;27.70;;
23676;SDS011;31493;49.058;12.190;2022-12-18T03:25:21;70.75;;;27.63;;
23676;SDS011;31493;49.058;12.190;2022-12-18T03:27:51;56.50;;;22.83;;
23676;SDS011;31493;49.058;12.190;2022-12-18T03:30:22;64.75;;;26.20;;
23676;SDS011;31493;49.058;12.190;2022-12-18T03:32:50;78.13;;;30.40;;
23676;SDS011;31493;49.058;12.190;2022-12-18T03:35:24;74.85;;;30.08;;
23676;SDS011;31493;49.058;12.190;2022-12-18T03:37:55;71.60;;;28.63;;
23676;SDS011;31493;49.058;12.190;2022-12-18T03:40:24;66.78;;;27.80;;
23676;SDS011;31493;49.058;12.190;2022-12-18T03:42:58;72.63;;;27.30;;
23676;SDS011;31493;49.058;12.190;2022-12-18T03:45:31;68.10;;;27.08;;
23676;SDS011;31493;49.058;12.190;2022-12-18T03:48:02;68.40;;;27.70;;
23676;SDS011;31493;49.058;12.190;2022-12-18T03:50:36;68.90;;;28.08;;
23676;SDS011;31493;49.058;12.190;2022-12-18T03:53:10;73.35;;;29.83;;
23676;SDS011;31493;49.058;12.190;2022-12-18T03:55:45;72.68;;;29.95;;
23676;SDS011;31493;49.058;12.190;2022-12-18T03:58:17;72.38;;;28.85;;
23676;SDS011;31493;49.058;12.190;2022-12-18T04:00:46;69.07;;;27.38;;
23676;SDS011;31493;49.058;12.190;2022-12-18T04:03:16;70.63;;;28.35;;
23676;SDS011;31493;49.058;12.190;2022-12-18T04:05:46;67.25;;;26.55;;
23676;SDS011;31493;49.058;12.190;2022-12-18T04:08:17;66.78;;;27.00;;
23676;SDS011;31493;49.058;12.190;2022-12-18T04:10:45;80.75;;;30.45;;
23676;SDS011;31493;49.058;12.190;2022-12-18T04:13:12;73.80;;;28.33;;
23676;SDS011;31493;49.058;12.190;2022-12-18T04:15:49;67.40;;;26.85;;
23676;SDS011;31493;49.058;12.190;2022-12-18T04:18:16;65.03;;;25.73;;
23676;SDS011;31493;49.058;12.190;2022-12-18T04:20:43;70.80;;;27.95;;
23676;SDS011;31493;49.058;12.190;2022-12-18T04:23:10;68.80;;;26.45;;
23676;SDS011;31493;49.058;12.190;2022-12-18T04:25:38;64.38;;;26.75;;
23676;SDS011;31493;49.058;12.190;2022-12-18T04:28:05;68.55;;;28.10;;
23676;SDS011;31493;49.058;12.190;2022-12-18T04:30:33;69.53;;;27.38;;
23676;SDS011;31493;49.058;12.190;2022-12-18T04:33:00;66.38;;;26.73;;
23676;SDS011;31493;49.058;12.190;2022-12-18T04:35:27;64.57;;;27.10;;
23676;SDS011;31493;49.058;12.190;2022-12-18T04:37:54;60.00;;;25.10;;
23676;SDS011;31493;49.058;12.190;2022-12-18T04:40:21;72.05;;;28.63;;
23676;SDS011;31493;49.058;12.190;2022-12-18T04:42:48;64.40;;;26.92;;
23676;SDS011;31493;49.058;12.190;2022-12-18T04:45:15;74.25;;;26.88;;
23676;SDS011;31493;49.058;12.190;2022-12-18T04:47:44;61.20;;;24.42;;
23676;SDS011;31493;49.058;12.190;2022-12-18T04:50:11;62.85;;;25.98;;
23676;SDS011;31493;49.058;12.190;2022-12-18T04:52:38;60.35;;;25.67;;
23676;SDS011;31493;49.058;12.190;2022-12-18T04:55:05;62.58;;;25.38;;
23676;SDS011;31493;49.058;12.190;2022-12-18T04:57:33;65.97;;;25.77;;
23676;SDS011;31493;49.058;12.190;2022-12-18T05:00:00;59.22;;;25.13;;
23676;SDS011;31493;49.058;12.190;2022-12-18T05:02:27;62.15;;;25.58;;
23676;SDS011;31493;49.058;12.190;2022-12-18T05:04:55;64.90;;;25.92;;
23676;SDS011;31493;49.058;12.190;2022-12-18T05:07:22;67.13;;;26.48;;
23676;SDS011;31493;49.058;12.190;2022-12-18T05:09:49;64.97;;;25.42;;
23676;SDS011;31493;49.058;12.190;2022-12-18T05:12:16;64.00;;;26.73;;
23676;SDS011;31493;49.058;12.190;2022-12-18T05:14:43;67.18;;;26.80;;
23676;SDS011;31493;49.058;12.190;2022-12-18T05:17:10;70.10;;;27.48;;
23676;SDS011;31493;49.058;12.190;2022-12-18T05:19:37;72.93;;;26.85;;
23676;SDS011;31493;49.058;12.190;2022-12-18T05:22:06;74.03;;;28.38;;
23676;SDS011;31493;49.058;12.190;2022-12-18T05:24:33;64.95;;;26.05;;
23676;SDS011;31493;49.058;12.190;2022-12-18T05:27:00;68.05;;;25.65;;
23676;SDS011;31493;49.058;12.190;2022-12-18T05:29:27;67.15;;;26.30;;
23676;SDS011;31493;49.058;12.190;2022-12-18T05:31:54;67.40;;;26.73;;
23676;SDS011;31493;49.058;12.190;2022-12-18T05:34:21;71.72;;;28.73;;
23676;SDS011;31493;49.058;12.190;2022-12-18T05:36:48;70.47;;;27.55;;
23676;SDS011;31493;49.058;12.190;2022-12-18T05:39:16;71.85;;;26.98;;
23676;SDS011;31493;49.058;12.190;2022-12-18T05:41:43;60.75;;;24.58;;
23676;SDS011;31493;49.058;12.190;2022-12-18T05:44:10;75.28;;;26.25;;
23676;SDS011;31493;49.058;12.190;2022-12-18T05:46:38;61.58;;;22.55;;
23676;SDS011;31493;49.058;12.190;2022-12-18T05:49:07;60.97;;;24.38;;
23676;SDS011;31493;49.058;12.190;2022-12-18T05:51:34;65.35;;;23.40;;
23676;SDS011;31493;49.058;12.190;2022-12-18T05:54:01;69.65;;;24.48;;
23676;SDS011;31493;49.058;12.190;2022-12-18T05:56:30;64.60;;;24.83;;
23676;SDS011;31493;49.058;12.190;2022-12-18T05:58:57;56.25;;;21.52;;
23676;SDS011;31493;49.058;12.190;2022-12-18T06:01:24;75.20;;;26.33;;
23676;SDS011;31493;49.058;12.190;2022-12-18T06:06:20;62.75;;;24.13;;
23676;SDS011;31493;49.058;12.190;2022-12-18T06:11:17;68.95;;;24.45;;
23676;SDS011;31493;49.058;12.190;2022-12-18T06:13:49;81.97;;;27.90;;
23676;SDS011;31493;49.058;12.190;2022-12-18T06:16:16;70.25;;;25.02;;
23676;SDS011;31493;49.058;12.190;2022-12-18T06:18:43;66.50;;;24.52;;
23676;SDS011;31493;49.058;12.190;2022-12-18T06:21:10;64.38;;;24.13;;
23676;SDS011;31493;49.058;12.190;2022-12-18T06:23:37;67.22;;;22.58;;
23676;SDS011;31493;49.058;12.190;2022-12-18T06:26:05;74.97;;;25.00;;
23676;SDS011;31493;49.058;12.190;2022-12-18T06:28:33;38.83;;;14.82;;
23676;SDS011;31493;49.058;12.190;2022-12-18T06:31:01;71.63;;;24.65;;
23676;SDS011;31493;49.058;12.190;2022-12-18T06:35:59;59.67;;;22.17;;
23676;SDS011;31493;49.058;12.190;2022-12-18T06:38:27;71.35;;;22.17;;
23676;SDS011;31493;49.058;12.190;2022-12-18T06:40:54;61.83;;;20.80;;
23676;SDS011;31493;49.058;12.190;2022-12-18T06:43:21;65.10;;;23.38;;
23676;SDS011;31493;49.058;12.190;2022-12-18T06:45:48;64.82;;;23.45;;
23676;SDS011;31493;49.058;12.190;2022-12-18T06:48:19;76.45;;;24.08;;
23676;SDS011;31493;49.058;12.190;2022-12-18T06:50:46;68.72;;;22.00;;
23676;SDS011;31493;49.058;12.190;2022-12-18T06:53:14;63.83;;;22.95;;
23676;SDS011;31493;49.058;12.190;2022-12-18T06:55:41;63.72;;;21.92;;
23676;SDS011;31493;49.058;12.190;2022-12-18T06:58:08;75.65;;;22.00;;
23676;SDS011;31493;49.058;12.190;2022-12-18T07:00:35;73.93;;;24.77;;
23676;SDS011;31493;49.058;12.190;2022-12-18T07:03:02;84.63;;;25.33;;
23676;SDS011;31493;49.058;12.190;2022-12-18T07:05:30;63.83;;;22.38;;
23676;SDS011;31493;49.058;12.190;2022-12-18T07:07:57;68.70;;;23.10;;
23676;SDS011;31493;49.058;12.190;2022-12-18T07:10:24;64.97;;;22.17;;
23676;SDS011;31493;49.058;12.190;2022-12-18T07:12:52;68.32;;;23.30;;
23676;SDS011;31493;49.058;12.190;2022-12-18T07:15:19;70.63;;;23.75;;
23676;SDS011;31493;49.058;12.190;2022-12-18T07:17:46;64.80;;;23.02;;
23676;SDS011;31493;49.058;12.190;2022-12-18T07:20:13;65.78;;;22.67;;
23676;SDS011;31493;49.058;12.190;2022-12-18T07:22:41;55.83;;;21.60;;
23676;SDS011;31493;49.058;12.190;2022-12-18T07:25:08;57.30;;;21.27;;
23676;SDS011;31493;49.058;12.190;2022-12-18T07:27:35;58.60;;;21.35;;
23676;SDS011;31493;49.058;12.190;2022-12-18T07:30:03;62.33;;;21.85;;
23676;SDS011;31493;49.058;12.190;2022-12-18T07:32:30;41.88;;;16.58;;
23676;SDS011;31493;49.058;12.190;2022-12-18T07:34:57;63.58;;;23.40;;
23676;SDS011;31493;49.058;12.190;2022-12-18T07:37:24;64.07;;;23.00;;
23676;SDS011;31493;49.058;12.190;2022-12-18T07:39:53;65.38;;;23.45;;
23676;SDS011;31493;49.058;12.190;2022-12-18T07:42:20;59.67;;;21.10;;
23676;SDS011;31493;49.058;12.190;2022-12-18T07:45:00;64.53;;;21.13;;
23676;SDS011;31493;49.058;12.190;2022-12-18T07:47:28;45.22;;;16.10;;
23676;SDS011;31493;49.058;12.190;2022-12-18T07:49:55;55.55;;;21.17;;
23676;SDS011;31493;49.058;12.190;2022-12-18T07:52:22;67.82;;;22.05;;
23676;SDS011;31493;49.058;12.190;2022-12-18T07:54:49;62.10;;;21.42;;
23676;SDS011;31493;49.058;12.190;2022-12-18T07:57:18;66.85;;;21.75;;
23676;SDS011;31493;49.058;12.190;2022-12-18T07:59:45;54.75;;;21.05;;
23676;SDS011;31493;49.058;12.190;2022-12-18T08:02:12;61.33;;;21.50;;
23676;SDS011;31493;49.058;12.190;2022-12-18T08:04:39;67.30;;;22.67;;
23676;SDS011;31493;49.058;12.190;2022-12-18T08:07:06;52.92;;;20.98;;
23676;SDS011;31493;49.058;12.190;2022-12-18T08:09:33;55.25;;;20.55;;
23676;SDS011;31493;49.058;12.190;2022-12-18T08:12:00;59.17;;;22.08;;
23676;SDS011;31493;49.058;12.190;2022-12-18T08:14:28;68.50;;;22.38;;
23676;SDS011;31493;49.058;12.190;2022-12-18T08:16:55;68.75;;;22.95;;
23676;SDS011;31493;49.058;12.190;2022-12-18T08:19:22;56.20;;;22.08;;
23676;SDS011;31493;49.058;12.190;2022-12-18T08:21:49;50.15;;;19.17;;
23676;SDS011;31493;49.058;12.190;2022-12-18T08:24:16;60.67;;;20.70;;
23676;SDS011;31493;49.058;12.190;2022-12-18T08:26:43;55.03;;;20.52;;
23676;SDS011;31493;49.058;12.190;2022-12-18T08:29:10;61.08;;;22.80;;
23676;SDS011;31493;49.058;12.190;2022-12-18T08:31:39;62.08;;;23.50;;
23676;SDS011;31493;49.058;12.190;2022-12-18T08:34:06;63.28;;;22.85;;
23676;SDS011;31493;49.058;12.190;2022-12-18T08:36:34;65.05;;;22.35;;
23676;SDS011;31493;49.058;12.190;2022-12-18T08:39:01;61.60;;;23.33;;
23676;SDS011;31493;49.058;12.190;2022-12-18T08:41:28;56.50;;;21.65;;
23676;SDS011;31493;49.058;12.190;2022-12-18T08:43:55;61.92;;;22.77;;
23676;SDS011;31493;49.058;12.190;2022-12-18T08:46:42;64.80;;;22.40;;
23676;SDS011;31493;49.058;12.190;2022-12-18T08:49:10;59.50;;;23.83;;
23676;SDS011;31493;49.058;12.190;2022-12-18T08:51:38;74.72;;;23.15;;
23676;SDS011;31493;49.058;12.190;2022-12-18T08:54:06;65.32;;;24.80;;
23676;SDS011;31493;49.058;12.190;2022-12-18T08:56:33;58.28;;;22.67;;
23676;SDS011;31493;49.058;12.190;2022-12-18T08:59:00;64.40;;;23.70;;
23676;SDS011;31493;49.058;12.190;2022-12-18T09:01:28;55.60;;;22.58;;
23676;SDS011;31493;49.058;12.190;2022-12-18T09:03:56;62.85;;;23.38;;
23676;SDS011;31493;49.058;12.190;2022-12-18T09:06:23;61.75;;;23.08;;
23676;SDS011;31493;49.058;12.190;2022-12-18T09:08:52;65.75;;;24.75;;
23676;SDS011;31493;49.058;12.190;2022-12-18T09:11:20;87.57;;;23.85;;
23676;SDS011;31493;49.058;12.190;2022-12-18T09:13:49;62.33;;;23.02;;
23676;SDS011;31493;49.058;12.190;2022-12-18T09:16:17;72.07;;;24.98;;
23676;SDS011;31493;49.058;12.190;2022-12-18T09:18:45;58.92;;;24.42;;
23676;SDS011;31493;49.058;12.190;2022-12-18T09:21:14;61.80;;;24.67;;
23676;SDS011;31493;49.058;12.190;2022-12-18T09:23:43;80.10;;;24.48;;
23676;SDS011;31493;49.058;12.190;2022-12-18T09:26:10;83.00;;;22.67;;
23676;SDS011;31493;49.058;12.190;2022-12-18T09:28:37;61.70;;;23.83;;
23676;SDS011;31493;49.058;12.190;2022-12-18T09:31:06;56.22;;;22.55;;
23676;SDS011;31493;49.058;12.190;2022-12-18T09:33:34;67.60;;;22.00;;
23676;SDS011;31493;49.058;12.190;2022-12-18T09:36:02;47.78;;;17.55;;
23676;SDS011;31493;49.058;12.190;2022-12-18T09:41:00;72.82;;;21.50;;
23676;SDS011;31493;49.058;12.190;2022-12-18T09:43:33;55.50;;;21.30;;
23676;SDS011;31493;49.058;12.190;2022-12-18T09:46:07;52.60;;;20.10;;
23676;SDS011;31493;49.058;12.190;2022-12-18T09:48:38;58.70;;;21.67;;
23676;SDS011;31493;49.058;12.190;2022-12-18T09:51:12;58.10;;;21.77;;
23676;SDS011;31493;49.058;12.190;2022-12-18T09:53:44;58.45;;;21.77;;
23676;SDS011;31493;49.058;12.190;2022-12-18T09:56:18;55.00;;;21.42;;
23676;SDS011;31493;49.058;12.190;2022-12-18T09:58:49;50.55;;;19.70;;
23676;SDS011;31493;49.058;12.190;2022-12-18T10:01:22;54.53;;;21.58;;
23676;SDS011;31493;49.058;12.190;2022-12-18T10:03:50;56.50;;;21.65;;
23676;SDS011;31493;49.058;12.190;2022-12-18T10:06:18;62.83;;;22.67;;
23676;SDS011;31493;49.058;12.190;2022-12-18T10:08:53;50.00;;;20.70;;
23676;SDS011;31493;49.058;12.190;2022-12-18T10:11:30;56.83;;;21.73;;
23676;SDS011;31493;49.058;12.190;2022-12-18T10:14:05;50.15;;;19.05;;
23676;SDS011;31493;49.058;12.190;2022-12-18T10:16:43;55.03;;;20.35;;
23676;SDS011;31493;49.058;12.190;2022-12-18T10:19:23;49.30;;;19.63;;
23676;SDS011;31493;49.058;12.190;2022-12-18T10:22:01;54.67;;;21.45;;
23676;SDS011;31493;49.058;12.190;2022-12-18T10:24:39;50.00;;;19.98;;
23676;SDS011;31493;49.058;12.190;2022-12-18T10:27:12;59.05;;;20.52;;
23676;SDS011;31493;49.058;12.190;2022-12-18T10:29:42;52.80;;;19.73;;
23676;SDS011;31493;49.058;12.190;2022-12-18T10:32:13;34.22;;;14.93;;
23676;SDS011;31493;49.058;12.190;2022-12-18T10:34:44;52.30;;;21.38;;
23676;SDS011;31493;49.058;12.190;2022-12-18T10:37:14;52.38;;;19.70;;
23676;SDS011;31493;49.058;12.190;2022-12-18T10:39:45;55.63;;;21.77;;
23676;SDS011;31493;49.058;12.190;2022-12-18T10:42:16;53.38;;;21.75;;
23676;SDS011;31493;49.058;12.190;2022-12-18T10:44:44;54.65;;;21.50;;
23676;SDS011;31493;49.058;12.190;2022-12-18T10:47:12;48.88;;;19.48;;
23676;SDS011;31493;49.058;12.190;2022-12-18T10:49:47;50.67;;;20.05;;
23676;SDS011;31493;49.058;12.190;2022-12-18T10:52:17;46.47;;;19.95;;
23676;SDS011;31493;49.058;12.190;2022-12-18T10:54:49;50.75;;;20.27;;
23676;SDS011;31493;49.058;12.190;2022-12-18T10:57:31;55.97;;;21.30;;
23676;SDS011;31493;49.058;12.190;2022-12-18T11:00:18;45.42;;;18.38;;
23676;SDS011;31493;49.058;12.190;2022-12-18T11:02:49;50.05;;;20.92;;
23676;SDS011;31493;49.058;12.190;2022-12-18T11:05:24;48.28;;;20.48;;
23676;SDS011;31493;49.058;12.190;2022-12-18T11:07:53;45.95;;;19.80;;
23676;SDS011;31493;49.058;12.190;2022-12-18T11:10:22;53.55;;;19.30;;
23676;SDS011;31493;49.058;12.190;2022-12-18T11:12:52;48.92;;;19.77;;
23676;SDS011;31493;49.058;12.190;2022-12-18T11:15:20;52.42;;;21.08;;
23676;SDS011;31493;49.058;12.190;2022-12-18T11:17:51;47.92;;;19.15;;
23676;SDS011;31493;49.058;12.190;2022-12-18T11:20:20;42.95;;;15.95;;
23676;SDS011;31493;49.058;12.190;2022-12-18T11:22:54;51.05;;;19.95;;
23676;SDS011;31493;49.058;12.190;2022-12-18T11:25:25;50.58;;;20.65;;
23676;SDS011;31493;49.058;12.190;2022-12-18T11:27:53;56.22;;;22.15;;
23676;SDS011;31493;49.058;12.190;2022-12-18T11:30:23;54.47;;;22.23;;
23676;SDS011;31493;49.058;12.190;2022-12-18T11:32:53;53.42;;;22.05;;
23676;SDS011;31493;49.058;12.190;2022-12-18T11:35:25;51.95;;;20.67;;
23676;SDS011;31493;49.058;12.190;2022-12-18T11:38:02;48.30;;;20.60;;
23676;SDS011;31493;49.058;12.190;2022-12-18T11:40:35;52.22;;;20.27;;
23676;SDS011;31493;49.058;12.190;2022-12-18T11:43:05;51.03;;;20.52;;
23676;SDS011;31493;49.058;12.190;2022-12-18T11:45:39;48.15;;;19.88;;
23676;SDS011;31493;49.058;12.190;2022-12-18T11:48:12;46.63;;;20.50;;
23676;SDS011;31493;49.058;12.190;2022-12-18T11:50:47;44.08;;;19.40;;
23676;SDS011;31493;49.058;12.190;2022-12-18T11:53:17;48.92;;;20.00;;
23676;SDS011;31493;49.058;12.190;2022-12-18T11:55:49;47.40;;;21.00;;
23676;SDS011;31493;49.058;12.190;2022-12-18T11:58:25;49.63;;;20.48;;
23676;SDS011;31493;49.058;12.190;2022-12-18T12:01:09;37.17;;;17.08;;
23676;SDS011;31493;49.058;12.190;2022-12-18T12:03:54;43.70;;;19.98;;
23676;SDS011;31493;49.058;12.190;2022-12-18T12:06:42;43.20;;;17.88;;
23676;SDS011;31493;49.058;12.190;2022-12-18T12:09:17;47.38;;;20.17;;
23676;SDS011;31493;49.058;12.190;2022-12-18T12:11:55;43.53;;;19.27;;
23676;SDS011;31493;49.058;12.190;2022-12-18T12:14:41;43.35;;;18.42;;
23676;SDS011;31493;49.058;12.190;2022-12-18T12:19:50;47.38;;;19.58;;
23676;SDS011;31493;49.058;12.190;2022-12-18T12:22:26;45.33;;;19.90;;
23676;SDS011;31493;49.058;12.190;2022-12-18T12:25:05;46.65;;;20.75;;
23676;SDS011;31493;49.058;12.190;2022-12-18T12:27:43;45.03;;;20.08;;
23676;SDS011;31493;49.058;12.190;2022-12-18T12:30:20;41.75;;;18.35;;
23676;SDS011;31493;49.058;12.190;2022-12-18T12:32:58;38.00;;;17.48;;
23676;SDS011;31493;49.058;12.190;2022-12-18T12:35:42;38.70;;;19.20;;
23676;SDS011;31493;49.058;12.190;2022-12-18T12:38:16;44.67;;;19.50;;
23676;SDS011;31493;49.058;12.190;2022-12-18T12:40:49;43.92;;;19.92;;
23676;SDS011;31493;49.058;12.190;2022-12-18T12:43:22;46.38;;;21.52;;
23676;SDS011;31493;49.058;12.190;2022-12-18T12:45:55;53.80;;;25.95;;
23676;SDS011;31493;49.058;12.190;2022-12-18T12:48:31;45.67;;;20.02;;
23676;SDS011;31493;49.058;12.190;2022-12-18T12:51:04;41.22;;;20.00;;
23676;SDS011;31493;49.058;12.190;2022-12-18T12:53:37;41.92;;;18.23;;
23676;SDS011;31493;49.058;12.190;2022-12-18T12:56:06;44.42;;;18.92;;
23676;SDS011;31493;49.058;12.190;2022-12-18T12:58:38;50.85;;;23.85;;
23676;SDS011;31493;49.058;12.190;2022-12-18T13:01:13;43.63;;;18.23;;
23676;SDS011;31493;49.058;12.190;2022-12-18T13:03:50;43.05;;;20.65;;
23676;SDS011;31493;49.058;12.190;2022-12-18T13:06:25;44.15;;;21.75;;
23676;SDS011;31493;49.058;12.190;2022-12-18T13:09:03;46.67;;;21.42;;
23676;SDS011;31493;49.058;12.190;2022-12-18T13:11:37;46.80;;;22.17;;
23676;SDS011;31493;49.058;12.190;2022-12-18T13:14:23;52.17;;;24.20;;
23676;SDS011;31493;49.058;12.190;2022-12-18T13:19:43;50.75;;;23.27;;
23676;SDS011;31493;49.058;12.190;2022-12-18T13:22:20;45.40;;;22.05;;
23676;SDS011;31493;49.058;12.190;2022-12-18T13:24:49;43.75;;;21.35;;
23676;SDS011;31493;49.058;12.190;2022-12-18T13:27:45;45.30;;;20.27;;
23676;SDS011;31493;49.058;12.190;2022-12-18T13:36:10;47.38;;;21.98;;
23676;SDS011;31493;49.058;12.190;2022-12-18T13:38:41;44.35;;;22.23;;
23676;SDS011;31493;49.058;12.190;2022-12-18T13:43:52;49.15;;;22.40;;
23676;SDS011;31493;49.058;12.190;2022-12-18T13:46:25;50.17;;;21.92;;
23676;SDS011;31493;49.058;12.190;2022-12-18T13:48:55;46.83;;;22.60;;
23676;SDS011;31493;49.058;12.190;2022-12-18T13:51:25;47.10;;;21.13;;
23676;SDS011;31493;49.058;12.190;2022-12-18T13:53:53;50.20;;;23.88;;
23676;SDS011;31493;49.058;12.190;2022-12-18T13:56:24;44.10;;;19.70;;
23676;SDS011;31493;49.058;12.190;2022-12-18T13:59:05;41.15;;;20.90;;
23676;SDS011;31493;49.058;12.190;2022-12-18T14:01:43;43.95;;;21.17;;
23676;SDS011;31493;49.058;12.190;2022-12-18T14:04:12;40.85;;;20.50;;
23676;SDS011;31493;49.058;12.190;2022-12-18T14:06:45;41.95;;;20.55;;
23676;SDS011;31493;49.058;12.190;2022-12-18T14:09:14;44.15;;;20.70;;
23676;SDS011;31493;49.058;12.190;2022-12-18T14:11:45;42.65;;;19.67;;
23676;SDS011;31493;49.058;12.190;2022-12-18T14:14:14;39.15;;;19.00;;
23676;SDS011;31493;49.058;12.190;2022-12-18T14:16:44;46.20;;;22.00;;
23676;SDS011;31493;49.058;12.190;2022-12-18T14:19:14;44.35;;;20.63;;
23676;SDS011;31493;49.058;12.190;2022-12-18T14:21:46;39.33;;;18.95;;
23676;SDS011;31493;49.058;12.190;2022-12-18T14:24:16;42.42;;;21.30;;
23676;SDS011;31493;49.058;12.190;2022-12-18T14:26:45;44.22;;;21.10;;
23676;SDS011;31493;49.058;12.190;2022-12-18T14:29:23;42.72;;;20.65;;
23676;SDS011;31493;49.058;12.190;2022-12-18T14:32:05;44.50;;;20.77;;
23676;SDS011;31493;49.058;12.190;2022-12-18T14:34:36;36.88;;;17.63;;
23676;SDS011;31493;49.058;12.190;2022-12-18T14:37:03;40.60;;;19.10;;
23676;SDS011;31493;49.058;12.190;2022-12-18T14:39:30;43.30;;;20.60;;
23676;SDS011;31493;49.058;12.190;2022-12-18T14:41:57;43.28;;;20.90;;
23676;SDS011;31493;49.058;12.190;2022-12-18T14:44:24;39.95;;;20.05;;
23676;SDS011;31493;49.058;12.190;2022-12-18T14:46:51;35.58;;;17.80;;
23676;SDS011;31493;49.058;12.190;2022-12-18T14:49:21;37.85;;;18.55;;
23676;SDS011;31493;49.058;12.190;2022-12-18T14:51:51;41.22;;;21.00;;